logo
Search for airport 
image banner adimage banner adimage banner ad
image banner ad

SSDJ - Dias Branco

Located in Fortaleza, Brazil

ICAO - SSDJ, IATA -

Data provided by Airmate  

General information

Coordinates: S3°44'43" W38°29'59"
Elevation is 167 feet MSL.
Magnetic variation is -20.73282215° East
View others Airports in Ceará

Operational data

Special qualification required
Current time UTC:
Current local time:
Weather at : SBFZ - Pinto Martins ( 5 km )
METAR: SBFZ 180100Z 17007KT 9999 FEW020 SCT080 26/22 Q1014
View NOTAMs / SUP AIP / TFR affecting this airport [VIEW]
Communications frequencies: [VIEW]

Runways:

Airport contact information

Address: Fortaleza Brazil

Satellite view of SSDJ